sensor_id;sensor_type;location;lat;lon;timestamp;P1;durP1;ratioP1;P2;durP2;ratioP2
40951;SDS011;26682;51.660;19.338;2023-04-24T00:00:33;17.30;;;15.48;;
40951;SDS011;26682;51.660;19.338;2023-04-24T00:03:36;21.25;;;15.73;;
40951;SDS011;26682;51.660;19.338;2023-04-24T00:06:20;25.88;;;19.52;;
40951;SDS011;26682;51.660;19.338;2023-04-24T00:09:05;22.02;;;17.45;;
40951;SDS011;26682;51.660;19.338;2023-04-24T00:11:47;19.40;;;14.38;;
40951;SDS011;26682;51.660;19.338;2023-04-24T00:14:30;19.88;;;16.23;;
40951;SDS011;26682;51.660;19.338;2023-04-24T00:17:13;18.77;;;15.93;;
40951;SDS011;26682;51.660;19.338;2023-04-24T00:19:56;17.48;;;14.95;;
40951;SDS011;26682;51.660;19.338;2023-04-24T00:25:25;18.17;;;13.82;;
40951;SDS011;26682;51.660;19.338;2023-04-24T00:28:07;20.27;;;14.38;;
40951;SDS011;26682;51.660;19.338;2023-04-24T00:30:50;16.45;;;13.00;;
40951;SDS011;26682;51.660;19.338;2023-04-24T00:33:34;18.98;;;14.57;;
40951;SDS011;26682;51.660;19.338;2023-04-24T00:36:16;18.90;;;13.57;;
40951;SDS011;26682;51.660;19.338;2023-04-24T00:39:01;17.40;;;13.98;;
40951;SDS011;26682;51.660;19.338;2023-04-24T00:41:45;15.82;;;13.40;;
40951;SDS011;26682;51.660;19.338;2023-04-24T00:44:27;15.65;;;11.73;;
40951;SDS011;26682;51.660;19.338;2023-04-24T00:47:11;13.75;;;12.20;;
40951;SDS011;26682;51.660;19.338;2023-04-24T00:49:54;17.67;;;12.43;;
40951;SDS011;26682;51.660;19.338;2023-04-24T00:52:37;14.75;;;11.68;;
40951;SDS011;26682;51.660;19.338;2023-04-24T00:55:22;15.13;;;12.05;;
40951;SDS011;26682;51.660;19.338;2023-04-24T00:58:07;15.55;;;12.55;;
40951;SDS011;26682;51.660;19.338;2023-04-24T01:00:50;14.82;;;13.15;;
40951;SDS011;26682;51.660;19.338;2023-04-24T01:03:35;19.10;;;13.25;;
40951;SDS011;26682;51.660;19.338;2023-04-24T01:06:19;19.10;;;13.00;;
40951;SDS011;26682;51.660;19.338;2023-04-24T01:09:02;16.50;;;12.45;;
40951;SDS011;26682;51.660;19.338;2023-04-24T01:11:44;16.60;;;13.25;;
40951;SDS011;26682;51.660;19.338;2023-04-24T01:14:27;19.10;;;13.38;;
40951;SDS011;26682;51.660;19.338;2023-04-24T01:17:10;16.25;;;14.55;;
40951;SDS011;26682;51.660;19.338;2023-04-24T01:19:53;18.83;;;14.50;;
40951;SDS011;26682;51.660;19.338;2023-04-24T01:22:38;20.83;;;15.68;;
40951;SDS011;26682;51.660;19.338;2023-04-24T01:25:21;20.10;;;15.23;;
40951;SDS011;26682;51.660;19.338;2023-04-24T01:28:03;21.92;;;16.33;;
40951;SDS011;26682;51.660;19.338;2023-04-24T01:30:46;22.85;;;15.73;;
40951;SDS011;26682;51.660;19.338;2023-04-24T01:33:29;20.65;;;15.57;;
40951;SDS011;26682;51.660;19.338;2023-04-24T01:36:11;19.70;;;14.68;;
40951;SDS011;26682;51.660;19.338;2023-04-24T01:38:55;17.27;;;14.40;;
40951;SDS011;26682;51.660;19.338;2023-04-24T01:41:40;19.20;;;14.13;;
40951;SDS011;26682;51.660;19.338;2023-04-24T01:44:26;18.27;;;13.82;;
40951;SDS011;26682;51.660;19.338;2023-04-24T01:47:10;19.92;;;14.80;;
40951;SDS011;26682;51.660;19.338;2023-04-24T01:49:54;17.88;;;13.65;;
40951;SDS011;26682;51.660;19.338;2023-04-24T01:52:36;17.00;;;13.32;;
40951;SDS011;26682;51.660;19.338;2023-04-24T01:55:18;16.08;;;12.98;;
40951;SDS011;26682;51.660;19.338;2023-04-24T01:58:01;19.17;;;13.90;;
40951;SDS011;26682;51.660;19.338;2023-04-24T02:00:45;17.05;;;14.40;;
40951;SDS011;26682;51.660;19.338;2023-04-24T02:03:28;15.55;;;13.57;;
40951;SDS011;26682;51.660;19.338;2023-04-24T02:06:12;19.15;;;14.02;;
40951;SDS011;26682;51.660;19.338;2023-04-24T02:08:55;16.88;;;14.13;;
40951;SDS011;26682;51.660;19.338;2023-04-24T02:11:37;18.25;;;13.77;;
40951;SDS011;26682;51.660;19.338;2023-04-24T02:14:20;21.13;;;14.30;;
40951;SDS011;26682;51.660;19.338;2023-04-24T02:17:02;19.38;;;14.07;;
40951;SDS011;26682;51.660;19.338;2023-04-24T02:19:45;16.10;;;12.68;;
40951;SDS011;26682;51.660;19.338;2023-04-24T02:22:27;17.00;;;12.93;;
40951;SDS011;26682;51.660;19.338;2023-04-24T02:25:10;14.50;;;11.95;;
40951;SDS011;26682;51.660;19.338;2023-04-24T02:27:52;16.55;;;13.15;;
40951;SDS011;26682;51.660;19.338;2023-04-24T02:30:35;18.30;;;12.93;;
40951;SDS011;26682;51.660;19.338;2023-04-24T02:33:17;23.20;;;15.15;;
40951;SDS011;26682;51.660;19.338;2023-04-24T02:36:00;17.60;;;12.77;;
40951;SDS011;26682;51.660;19.338;2023-04-24T02:38:45;15.32;;;11.55;;
40951;SDS011;26682;51.660;19.338;2023-04-24T02:41:29;14.27;;;11.40;;
40951;SDS011;26682;51.660;19.338;2023-04-24T02:44:15;15.73;;;11.75;;
40951;SDS011;26682;51.660;19.338;2023-04-24T02:47:02;13.77;;;12.23;;
40951;SDS011;26682;51.660;19.338;2023-04-24T02:49:45;27.40;;;13.15;;
40951;SDS011;26682;51.660;19.338;2023-04-24T02:52:28;15.65;;;12.57;;
40951;SDS011;26682;51.660;19.338;2023-04-24T02:55:15;20.90;;;13.23;;
40951;SDS011;26682;51.660;19.338;2023-04-24T02:57:59;19.13;;;13.95;;
40951;SDS011;26682;51.660;19.338;2023-04-24T03:00:42;15.07;;;12.00;;
40951;SDS011;26682;51.660;19.338;2023-04-24T03:03:28;16.45;;;12.52;;
40951;SDS011;26682;51.660;19.338;2023-04-24T03:06:12;18.70;;;12.52;;
40951;SDS011;26682;51.660;19.338;2023-04-24T03:08:54;20.77;;;13.43;;
40951;SDS011;26682;51.660;19.338;2023-04-24T03:11:39;17.60;;;14.00;;
40951;SDS011;26682;51.660;19.338;2023-04-24T03:14:24;19.38;;;13.40;;
40951;SDS011;26682;51.660;19.338;2023-04-24T03:17:12;15.35;;;13.63;;
40951;SDS011;26682;51.660;19.338;2023-04-24T03:19:56;18.75;;;13.50;;
40951;SDS011;26682;51.660;19.338;2023-04-24T03:22:38;30.30;;;14.52;;
40951;SDS011;26682;51.660;19.338;2023-04-24T03:25:22;16.65;;;13.48;;
40951;SDS011;26682;51.660;19.338;2023-04-24T03:28:09;15.77;;;13.50;;
40951;SDS011;26682;51.660;19.338;2023-04-24T03:30:57;20.02;;;13.80;;
40951;SDS011;26682;51.660;19.338;2023-04-24T03:33:45;17.95;;;14.25;;
40951;SDS011;26682;51.660;19.338;2023-04-24T03:36:28;17.90;;;13.73;;
40951;SDS011;26682;51.660;19.338;2023-04-24T03:39:12;17.30;;;13.73;;
40951;SDS011;26682;51.660;19.338;2023-04-24T03:42:03;16.77;;;13.73;;
40951;SDS011;26682;51.660;19.338;2023-04-24T03:44:56;16.08;;;13.20;;
40951;SDS011;26682;51.660;19.338;2023-04-24T03:47:45;16.52;;;13.88;;
40951;SDS011;26682;51.660;19.338;2023-04-24T03:50:27;17.13;;;13.50;;
40951;SDS011;26682;51.660;19.338;2023-04-24T03:53:11;17.35;;;13.45;;
40951;SDS011;26682;51.660;19.338;2023-04-24T03:55:55;17.20;;;13.80;;
40951;SDS011;26682;51.660;19.338;2023-04-24T03:58:40;21.35;;;13.30;;
40951;SDS011;26682;51.660;19.338;2023-04-24T04:01:24;18.83;;;13.57;;
40951;SDS011;26682;51.660;19.338;2023-04-24T04:04:14;19.05;;;12.95;;
40951;SDS011;26682;51.660;19.338;2023-04-24T04:06:59;17.65;;;12.65;;
40951;SDS011;26682;51.660;19.338;2023-04-24T04:09:45;26.63;;;14.68;;
40951;SDS011;26682;51.660;19.338;2023-04-24T04:12:27;15.90;;;12.27;;
40951;SDS011;26682;51.660;19.338;2023-04-24T04:15:10;19.20;;;13.10;;
40951;SDS011;26682;51.660;19.338;2023-04-24T04:17:52;17.40;;;12.75;;
40951;SDS011;26682;51.660;19.338;2023-04-24T04:20:35;19.95;;;12.10;;
40951;SDS011;26682;51.660;19.338;2023-04-24T04:23:19;20.08;;;12.30;;
40951;SDS011;26682;51.660;19.338;2023-04-24T04:26:38;21.95;;;13.38;;
40951;SDS011;26682;51.660;19.338;2023-04-24T04:29:24;18.45;;;12.15;;
40951;SDS011;26682;51.660;19.338;2023-04-24T04:32:08;17.95;;;11.30;;
40951;SDS011;26682;51.660;19.338;2023-04-24T04:34:50;14.27;;;10.55;;
40951;SDS011;26682;51.660;19.338;2023-04-24T04:40:42;13.95;;;10.18;;
40951;SDS011;26682;51.660;19.338;2023-04-24T04:43:28;14.13;;;9.15;;
40951;SDS011;26682;51.660;19.338;2023-04-24T04:46:14;14.55;;;8.40;;
40951;SDS011;26682;51.660;19.338;2023-04-24T04:49:10;10.02;;;8.20;;
40951;SDS011;26682;51.660;19.338;2023-04-24T04:51:55;10.93;;;8.10;;
40951;SDS011;26682;51.660;19.338;2023-04-24T04:54:40;14.43;;;8.05;;
40951;SDS011;26682;51.660;19.338;2023-04-24T04:57:23;9.75;;;7.10;;
40951;SDS011;26682;51.660;19.338;2023-04-24T05:00:08;10.43;;;6.90;;
40951;SDS011;26682;51.660;19.338;2023-04-24T05:03:01;12.30;;;7.15;;
40951;SDS011;26682;51.660;19.338;2023-04-24T05:06:03;15.20;;;7.28;;
40951;SDS011;26682;51.660;19.338;2023-04-24T05:08:51;14.15;;;7.45;;
40951;SDS011;26682;51.660;19.338;2023-04-24T05:14:31;13.52;;;7.00;;
40951;SDS011;26682;51.660;19.338;2023-04-24T05:17:16;13.82;;;6.82;;
40951;SDS011;26682;51.660;19.338;2023-04-24T05:19:59;11.20;;;6.30;;
40951;SDS011;26682;51.660;19.338;2023-04-24T05:22:43;7.25;;;5.18;;
40951;SDS011;26682;51.660;19.338;2023-04-24T05:25:28;11.07;;;5.32;;
40951;SDS011;26682;51.660;19.338;2023-04-24T05:28:18;11.65;;;5.60;;
40951;SDS011;26682;51.660;19.338;2023-04-24T05:31:11;9.93;;;5.63;;
40951;SDS011;26682;51.660;19.338;2023-04-24T05:33:54;10.52;;;5.20;;
40951;SDS011;26682;51.660;19.338;2023-04-24T05:36:37;6.40;;;5.38;;
40951;SDS011;26682;51.660;19.338;2023-04-24T05:39:21;16.02;;;5.55;;
40951;SDS011;26682;51.660;19.338;2023-04-24T05:42:04;13.50;;;5.13;;
40951;SDS011;26682;51.660;19.338;2023-04-24T05:44:47;9.73;;;5.40;;
40951;SDS011;26682;51.660;19.338;2023-04-24T05:47:30;7.00;;;5.25;;
40951;SDS011;26682;51.660;19.338;2023-04-24T05:50:14;17.67;;;6.13;;
40951;SDS011;26682;51.660;19.338;2023-04-24T05:52:57;7.22;;;4.97;;
40951;SDS011;26682;51.660;19.338;2023-04-24T05:55:48;10.48;;;5.43;;
40951;SDS011;26682;51.660;19.338;2023-04-24T05:58:31;12.63;;;4.97;;
40951;SDS011;26682;51.660;19.338;2023-04-24T06:01:14;11.25;;;5.20;;
40951;SDS011;26682;51.660;19.338;2023-04-24T06:03:58;17.08;;;5.63;;
40951;SDS011;26682;51.660;19.338;2023-04-24T06:06:41;9.60;;;5.22;;
40951;SDS011;26682;51.660;19.338;2023-04-24T06:09:31;10.73;;;5.47;;
40951;SDS011;26682;51.660;19.338;2023-04-24T06:12:14;8.75;;;5.35;;
40951;SDS011;26682;51.660;19.338;2023-04-24T06:15:17;8.48;;;5.28;;
40951;SDS011;26682;51.660;19.338;2023-04-24T06:18:09;8.40;;;5.07;;
40951;SDS011;26682;51.660;19.338;2023-04-24T06:20:53;7.80;;;5.03;;
40951;SDS011;26682;51.660;19.338;2023-04-24T06:23:38;7.25;;;5.20;;
40951;SDS011;26682;51.660;19.338;2023-04-24T06:26:20;7.78;;;4.55;;
40951;SDS011;26682;51.660;19.338;2023-04-24T06:29:04;18.40;;;5.32;;
40951;SDS011;26682;51.660;19.338;2023-04-24T06:31:50;6.45;;;4.50;;
40951;SDS011;26682;51.660;19.338;2023-04-24T06:34:32;5.70;;;4.57;;
40951;SDS011;26682;51.660;19.338;2023-04-24T06:37:16;8.73;;;4.38;;
40951;SDS011;26682;51.660;19.338;2023-04-24T06:39:58;10.60;;;4.47;;
40951;SDS011;26682;51.660;19.338;2023-04-24T06:42:41;14.18;;;4.80;;
40951;SDS011;26682;51.660;19.338;2023-04-24T06:45:24;6.63;;;4.63;;
40951;SDS011;26682;51.660;19.338;2023-04-24T06:48:06;5.70;;;4.97;;
40951;SDS011;26682;51.660;19.338;2023-04-24T06:50:49;8.98;;;4.25;;
40951;SDS011;26682;51.660;19.338;2023-04-24T06:53:31;10.88;;;4.60;;
40951;SDS011;26682;51.660;19.338;2023-04-24T06:56:14;5.25;;;3.97;;
40951;SDS011;26682;51.660;19.338;2023-04-24T06:58:57;7.50;;;4.05;;
40951;SDS011;26682;51.660;19.338;2023-04-24T07:01:39;8.00;;;4.45;;
40951;SDS011;26682;51.660;19.338;2023-04-24T07:04:21;6.32;;;4.75;;
40951;SDS011;26682;51.660;19.338;2023-04-24T07:07:04;8.90;;;4.40;;
40951;SDS011;26682;51.660;19.338;2023-04-24T07:09:48;7.13;;;4.63;;
40951;SDS011;26682;51.660;19.338;2023-04-24T07:12:32;11.27;;;5.13;;
40951;SDS011;26682;51.660;19.338;2023-04-24T07:15:14;6.10;;;4.63;;
40951;SDS011;26682;51.660;19.338;2023-04-24T07:17:58;14.35;;;4.68;;
40951;SDS011;26682;51.660;19.338;2023-04-24T07:20:40;7.32;;;4.70;;
40951;SDS011;26682;51.660;19.338;2023-04-24T07:23:23;8.65;;;4.72;;
40951;SDS011;26682;51.660;19.338;2023-04-24T07:26:05;7.35;;;4.60;;
40951;SDS011;26682;51.660;19.338;2023-04-24T07:28:48;5.40;;;4.18;;
40951;SDS011;26682;51.660;19.338;2023-04-24T07:31:31;6.15;;;4.45;;
40951;SDS011;26682;51.660;19.338;2023-04-24T07:34:13;13.13;;;4.50;;
40951;SDS011;26682;51.660;19.338;2023-04-24T07:36:56;9.70;;;4.15;;
40951;SDS011;26682;51.660;19.338;2023-04-24T07:39:38;5.97;;;3.70;;
40951;SDS011;26682;51.660;19.338;2023-04-24T07:42:21;14.98;;;4.68;;
40951;SDS011;26682;51.660;19.338;2023-04-24T07:45:04;19.40;;;4.40;;
40951;SDS011;26682;51.660;19.338;2023-04-24T07:47:47;4.95;;;3.88;;
40951;SDS011;26682;51.660;19.338;2023-04-24T07:50:29;12.43;;;4.13;;
40951;SDS011;26682;51.660;19.338;2023-04-24T07:53:12;9.02;;;3.63;;
40951;SDS011;26682;51.660;19.338;2023-04-24T07:55:55;9.82;;;4.68;;
40951;SDS011;26682;51.660;19.338;2023-04-24T07:58:38;4.38;;;3.97;;
40951;SDS011;26682;51.660;19.338;2023-04-24T08:01:20;10.23;;;3.90;;
40951;SDS011;26682;51.660;19.338;2023-04-24T08:04:03;6.78;;;3.67;;
40951;SDS011;26682;51.660;19.338;2023-04-24T08:06:47;5.32;;;3.90;;
40951;SDS011;26682;51.660;19.338;2023-04-24T08:09:29;6.68;;;3.33;;
40951;SDS011;26682;51.660;19.338;2023-04-24T08:12:12;7.18;;;3.70;;
40951;SDS011;26682;51.660;19.338;2023-04-24T08:14:54;6.07;;;4.10;;
40951;SDS011;26682;51.660;19.338;2023-04-24T08:17:37;17.88;;;4.45;;
40951;SDS011;26682;51.660;19.338;2023-04-24T08:20:19;10.48;;;4.03;;
40951;SDS011;26682;51.660;19.338;2023-04-24T08:23:02;8.90;;;3.85;;
40951;SDS011;26682;51.660;19.338;2023-04-24T08:25:44;6.47;;;3.95;;
40951;SDS011;26682;51.660;19.338;2023-04-24T08:28:27;6.13;;;3.55;;
40951;SDS011;26682;51.660;19.338;2023-04-24T08:31:09;6.13;;;3.42;;
40951;SDS011;26682;51.660;19.338;2023-04-24T08:33:52;6.05;;;3.03;;
40951;SDS011;26682;51.660;19.338;2023-04-24T08:36:34;6.45;;;3.28;;
40951;SDS011;26682;51.660;19.338;2023-04-24T08:39:28;8.13;;;3.30;;
40951;SDS011;26682;51.660;19.338;2023-04-24T08:42:10;4.72;;;3.40;;
40951;SDS011;26682;51.660;19.338;2023-04-24T08:44:54;7.90;;;3.97;;
40951;SDS011;26682;51.660;19.338;2023-04-24T08:47:38;19.23;;;4.25;;
40951;SDS011;26682;51.660;19.338;2023-04-24T08:50:22;5.22;;;3.33;;
40951;SDS011;26682;51.660;19.338;2023-04-24T08:53:04;5.22;;;3.58;;
40951;SDS011;26682;51.660;19.338;2023-04-24T08:55:49;23.60;;;5.25;;
40951;SDS011;26682;51.660;19.338;2023-04-24T08:58:33;10.70;;;4.13;;
40951;SDS011;26682;51.660;19.338;2023-04-24T09:01:18;5.72;;;4.13;;
40951;SDS011;26682;51.660;19.338;2023-04-24T09:04:02;7.80;;;4.00;;
40951;SDS011;26682;51.660;19.338;2023-04-24T09:06:46;6.90;;;4.18;;
40951;SDS011;26682;51.660;19.338;2023-04-24T09:09:30;6.18;;;3.65;;
40951;SDS011;26682;51.660;19.338;2023-04-24T09:12:15;12.80;;;4.25;;
40951;SDS011;26682;51.660;19.338;2023-04-24T09:14:57;6.50;;;3.90;;
40951;SDS011;26682;51.660;19.338;2023-04-24T09:17:40;6.95;;;3.60;;
40951;SDS011;26682;51.660;19.338;2023-04-24T09:20:23;5.40;;;3.45;;
40951;SDS011;26682;51.660;19.338;2023-04-24T09:23:06;14.70;;;4.18;;
40951;SDS011;26682;51.660;19.338;2023-04-24T09:25:48;7.15;;;3.78;;
40951;SDS011;26682;51.660;19.338;2023-04-24T09:28:37;8.43;;;3.70;;
40951;SDS011;26682;51.660;19.338;2023-04-24T09:31:21;20.17;;;4.15;;
40951;SDS011;26682;51.660;19.338;2023-04-24T09:34:04;5.95;;;3.95;;
40951;SDS011;26682;51.660;19.338;2023-04-24T09:36:50;9.23;;;3.55;;
40951;SDS011;26682;51.660;19.338;2023-04-24T09:39:33;8.07;;;3.47;;
40951;SDS011;26682;51.660;19.338;2023-04-24T09:42:15;7.95;;;3.70;;
40951;SDS011;26682;51.660;19.338;2023-04-24T09:44:58;8.15;;;4.05;;
40951;SDS011;26682;51.660;19.338;2023-04-24T09:47:55;7.85;;;3.78;;
40951;SDS011;26682;51.660;19.338;2023-04-24T09:50:38;8.25;;;3.88;;
40951;SDS011;26682;51.660;19.338;2023-04-24T09:53:23;11.90;;;3.90;;
40951;SDS011;26682;51.660;19.338;2023-04-24T09:56:08;7.20;;;4.10;;
40951;SDS011;26682;51.660;19.338;2023-04-24T09:58:51;6.65;;;3.72;;
40951;SDS011;26682;51.660;19.338;2023-04-24T10:01:34;4.88;;;3.55;;
40951;SDS011;26682;51.660;19.338;2023-04-24T10:04:19;6.43;;;3.75;;
40951;SDS011;26682;51.660;19.338;2023-04-24T10:07:07;6.28;;;3.55;;
40951;SDS011;26682;51.660;19.338;2023-04-24T10:09:51;4.70;;;3.63;;
40951;SDS011;26682;51.660;19.338;2023-04-24T10:12:34;8.02;;;3.92;;
40951;SDS011;26682;51.660;19.338;2023-04-24T10:15:17;4.72;;;3.55;;
40951;SDS011;26682;51.660;19.338;2023-04-24T10:18:04;19.63;;;3.55;;
40951;SDS011;26682;51.660;19.338;2023-04-24T10:20:48;5.77;;;4.30;;
40951;SDS011;26682;51.660;19.338;2023-04-24T10:23:30;8.57;;;3.53;;
40951;SDS011;26682;51.660;19.338;2023-04-24T10:26:13;8.63;;;4.18;;
40951;SDS011;26682;51.660;19.338;2023-04-24T10:31:42;4.20;;;3.40;;
40951;SDS011;26682;51.660;19.338;2023-04-24T10:34:27;6.47;;;3.30;;
40951;SDS011;26682;51.660;19.338;2023-04-24T10:37:10;5.82;;;3.25;;
40951;SDS011;26682;51.660;19.338;2023-04-24T10:39:55;6.85;;;3.58;;
40951;SDS011;26682;51.660;19.338;2023-04-24T10:42:40;9.30;;;3.90;;
40951;SDS011;26682;51.660;19.338;2023-04-24T10:45:24;9.38;;;3.38;;
40951;SDS011;26682;51.660;19.338;2023-04-24T10:48:07;5.95;;;3.53;;
40951;SDS011;26682;51.660;19.338;2023-04-24T10:50:56;9.82;;;3.88;;
40951;SDS011;26682;51.660;19.338;2023-04-24T10:53:38;6.53;;;3.33;;
40951;SDS011;26682;51.660;19.338;2023-04-24T10:56:21;4.45;;;3.42;;
40951;SDS011;26682;51.660;19.338;2023-04-24T10:59:04;35.53;;;5.60;;
40951;SDS011;26682;51.660;19.338;2023-04-24T11:01:55;4.97;;;3.42;;
40951;SDS011;26682;51.660;19.338;2023-04-24T11:07:20;6.15;;;3.55;;
40951;SDS011;26682;51.660;19.338;2023-04-24T11:10:03;11.65;;;3.92;;
40951;SDS011;26682;51.660;19.338;2023-04-24T11:12:45;8.20;;;3.95;;
40951;SDS011;26682;51.660;19.338;2023-04-24T11:15:28;4.85;;;3.53;;
40951;SDS011;26682;51.660;19.338;2023-04-24T11:18:14;9.50;;;3.63;;
40951;SDS011;26682;51.660;19.338;2023-04-24T11:23:41;11.32;;;3.90;;
40951;SDS011;26682;51.660;19.338;2023-04-24T11:26:24;8.45;;;4.25;;
40951;SDS011;26682;51.660;19.338;2023-04-24T11:29:12;53.60;;;5.57;;
40951;SDS011;26682;51.660;19.338;2023-04-24T11:31:54;114.60;;;7.90;;
40951;SDS011;26682;51.660;19.338;2023-04-24T11:34:39;4.97;;;3.60;;
40951;SDS011;26682;51.660;19.338;2023-04-24T11:37:23;5.97;;;3.45;;
40951;SDS011;26682;51.660;19.338;2023-04-24T11:40:07;6.43;;;3.90;;
40951;SDS011;26682;51.660;19.338;2023-04-24T11:48:20;9.13;;;3.80;;
40951;SDS011;26682;51.660;19.338;2023-04-24T11:51:05;6.72;;;3.53;;
40951;SDS011;26682;51.660;19.338;2023-04-24T11:53:47;7.20;;;3.72;;
40951;SDS011;26682;51.660;19.338;2023-04-24T11:56:46;6.87;;;3.33;;
40951;SDS011;26682;51.660;19.338;2023-04-24T11:59:29;8.38;;;4.20;;
40951;SDS011;26682;51.660;19.338;2023-04-24T12:02:24;6.65;;;3.63;;
40951;SDS011;26682;51.660;19.338;2023-04-24T12:05:08;7.50;;;3.65;;
40951;SDS011;26682;51.660;19.338;2023-04-24T12:07:51;7.43;;;4.03;;
40951;SDS011;26682;51.660;19.338;2023-04-24T12:10:35;5.72;;;3.25;;
40951;SDS011;26682;51.660;19.338;2023-04-24T12:13:18;11.57;;;4.25;;
40951;SDS011;26682;51.660;19.338;2023-04-24T12:16:03;5.28;;;3.58;;
40951;SDS011;26682;51.660;19.338;2023-04-24T12:18:47;5.97;;;3.80;;
40951;SDS011;26682;51.660;19.338;2023-04-24T12:21:29;9.57;;;4.30;;
40951;SDS011;26682;51.660;19.338;2023-04-24T12:24:14;15.95;;;4.07;;
40951;SDS011;26682;51.660;19.338;2023-04-24T12:26:56;7.75;;;3.80;;
40951;SDS011;26682;51.660;19.338;2023-04-24T12:29:51;6.00;;;3.33;;
40951;SDS011;26682;51.660;19.338;2023-04-24T12:32:44;9.93;;;3.80;;
40951;SDS011;26682;51.660;19.338;2023-04-24T12:35:30;9.27;;;3.25;;
40951;SDS011;26682;51.660;19.338;2023-04-24T12:38:15;6.25;;;3.53;;
40951;SDS011;26682;51.660;19.338;2023-04-24T12:41:03;7.30;;;3.40;;
40951;SDS011;26682;51.660;19.338;2023-04-24T12:43:53;6.88;;;3.80;;
40951;SDS011;26682;51.660;19.338;2023-04-24T12:46:36;8.73;;;3.90;;
40951;SDS011;26682;51.660;19.338;2023-04-24T12:49:19;5.07;;;3.30;;
40951;SDS011;26682;51.660;19.338;2023-04-24T12:52:02;10.52;;;3.90;;
40951;SDS011;26682;51.660;19.338;2023-04-24T12:54:48;17.45;;;4.20;;
40951;SDS011;26682;51.660;19.338;2023-04-24T12:57:31;8.18;;;3.53;;
40951;SDS011;26682;51.660;19.338;2023-04-24T13:00:14;7.78;;;3.20;;
40951;SDS011;26682;51.660;19.338;2023-04-24T13:03:00;7.50;;;3.30;;
40951;SDS011;26682;51.660;19.338;2023-04-24T13:05:44;5.90;;;3.00;;
40951;SDS011;26682;51.660;19.338;2023-04-24T13:08:27;11.90;;;3.53;;
40951;SDS011;26682;51.660;19.338;2023-04-24T13:11:09;9.75;;;3.50;;
40951;SDS011;26682;51.660;19.338;2023-04-24T13:13:52;11.48;;;4.05;;
40951;SDS011;26682;51.660;19.338;2023-04-24T13:16:36;3.85;;;3.20;;
40951;SDS011;26682;51.660;19.338;2023-04-24T13:19:19;5.10;;;3.25;;
40951;SDS011;26682;51.660;19.338;2023-04-24T13:22:02;14.48;;;3.40;;
40951;SDS011;26682;51.660;19.338;2023-04-24T13:24:46;17.00;;;3.50;;
40951;SDS011;26682;51.660;19.338;2023-04-24T13:27:32;12.20;;;3.25;;
40951;SDS011;26682;51.660;19.338;2023-04-24T13:30:15;8.02;;;3.30;;
40951;SDS011;26682;51.660;19.338;2023-04-24T13:32:57;6.95;;;3.15;;
40951;SDS011;26682;51.660;19.338;2023-04-24T13:35:40;8.32;;;4.13;;
40951;SDS011;26682;51.660;19.338;2023-04-24T13:38:23;22.02;;;4.97;;
40951;SDS011;26682;51.660;19.338;2023-04-24T13:41:05;7.78;;;3.88;;
40951;SDS011;26682;51.660;19.338;2023-04-24T13:43:48;5.93;;;4.05;;
40951;SDS011;26682;51.660;19.338;2023-04-24T13:46:30;5.57;;;3.80;;
40951;SDS011;26682;51.660;19.338;2023-04-24T13:49:13;15.85;;;4.55;;
40951;SDS011;26682;51.660;19.338;2023-04-24T13:51:56;8.82;;;3.80;;
40951;SDS011;26682;51.660;19.338;2023-04-24T13:54:39;6.10;;;3.90;;
40951;SDS011;26682;51.660;19.338;2023-04-24T13:57:21;21.63;;;4.72;;
40951;SDS011;26682;51.660;19.338;2023-04-24T14:00:04;6.55;;;3.92;;
40951;SDS011;26682;51.660;19.338;2023-04-24T14:02:52;10.05;;;4.47;;
40951;SDS011;26682;51.660;19.338;2023-04-24T14:05:35;18.90;;;4.38;;
40951;SDS011;26682;51.660;19.338;2023-04-24T14:08:19;11.60;;;3.80;;
40951;SDS011;26682;51.660;19.338;2023-04-24T14:11:02;9.18;;;4.22;;
40951;SDS011;26682;51.660;19.338;2023-04-24T14:13:45;19.95;;;4.35;;
40951;SDS011;26682;51.660;19.338;2023-04-24T14:16:28;11.30;;;4.00;;
40951;SDS011;26682;51.660;19.338;2023-04-24T14:19:11;5.90;;;3.70;;
40951;SDS011;26682;51.660;19.338;2023-04-24T14:21:55;35.22;;;7.07;;
40951;SDS011;26682;51.660;19.338;2023-04-24T14:24:40;11.80;;;4.75;;
40951;SDS011;26682;51.660;19.338;2023-04-24T14:27:24;5.85;;;3.78;;
40951;SDS011;26682;51.660;19.338;2023-04-24T14:30:07;12.45;;;4.40;;
40951;SDS011;26682;51.660;19.338;2023-04-24T14:32:50;15.95;;;4.70;;
40951;SDS011;26682;51.660;19.338;2023-04-24T14:35:32;16.52;;;4.57;;
40951;SDS011;26682;51.660;19.338;2023-04-24T14:38:16;8.57;;;4.10;;
40951;SDS011;26682;51.660;19.338;2023-04-24T14:40:59;6.28;;;4.30;;
40951;SDS011;26682;51.660;19.338;2023-04-24T14:43:44;6.68;;;4.00;;
40951;SDS011;26682;51.660;19.338;2023-04-24T14:46:28;10.07;;;3.85;;
40951;SDS011;26682;51.660;19.338;2023-04-24T14:49:14;6.85;;;4.22;;
40951;SDS011;26682;51.660;19.338;2023-04-24T14:51:57;7.93;;;4.53;;
40951;SDS011;26682;51.660;19.338;2023-04-24T14:54:39;11.18;;;4.60;;
40951;SDS011;26682;51.660;19.338;2023-04-24T14:57:22;12.35;;;4.50;;
40951;SDS011;26682;51.660;19.338;2023-04-24T15:00:08;30.80;;;6.10;;
40951;SDS011;26682;51.660;19.338;2023-04-24T15:02:52;6.65;;;4.10;;
40951;SDS011;26682;51.660;19.338;2023-04-24T15:05:34;10.73;;;4.70;;
40951;SDS011;26682;51.660;19.338;2023-04-24T15:08:18;13.48;;;4.43;;
40951;SDS011;26682;51.660;19.338;2023-04-24T15:11:29;8.13;;;4.72;;
40951;SDS011;26682;51.660;19.338;2023-04-24T15:14:12;12.95;;;4.45;;
40951;SDS011;26682;51.660;19.338;2023-04-24T15:16:54;9.05;;;4.32;;
40951;SDS011;26682;51.660;19.338;2023-04-24T15:19:37;10.50;;;4.70;;
40951;SDS011;26682;51.660;19.338;2023-04-24T15:22:19;12.55;;;4.22;;
40951;SDS011;26682;51.660;19.338;2023-04-24T15:25:02;11.05;;;4.88;;
40951;SDS011;26682;51.660;19.338;2023-04-24T15:27:45;11.45;;;4.57;;
40951;SDS011;26682;51.660;19.338;2023-04-24T15:30:28;11.43;;;4.85;;
40951;SDS011;26682;51.660;19.338;2023-04-24T15:33:11;12.43;;;4.88;;
40951;SDS011;26682;51.660;19.338;2023-04-24T15:35:54;13.23;;;4.50;;
40951;SDS011;26682;51.660;19.338;2023-04-24T15:38:37;8.43;;;4.70;;
40951;SDS011;26682;51.660;19.338;2023-04-24T15:41:19;7.40;;;4.78;;
40951;SDS011;26682;51.660;19.338;2023-04-24T15:44:03;13.05;;;5.30;;
40951;SDS011;26682;51.660;19.338;2023-04-24T15:46:47;11.07;;;4.85;;
40951;SDS011;26682;51.660;19.338;2023-04-24T15:49:30;10.75;;;5.47;;
40951;SDS011;26682;51.660;19.338;2023-04-24T15:52:13;9.80;;;5.70;;
40951;SDS011;26682;51.660;19.338;2023-04-24T15:54:56;20.45;;;7.30;;
40951;SDS011;26682;51.660;19.338;2023-04-24T15:57:40;8.48;;;5.68;;
40951;SDS011;26682;51.660;19.338;2023-04-24T16:00:24;13.55;;;9.38;;
40951;SDS011;26682;51.660;19.338;2023-04-24T16:03:08;16.42;;;6.53;;
40951;SDS011;26682;51.660;19.338;2023-04-24T16:05:54;21.30;;;11.85;;
40951;SDS011;26682;51.660;19.338;2023-04-24T16:08:41;32.17;;;20.95;;
40951;SDS011;26682;51.660;19.338;2023-04-24T16:11:24;17.50;;;13.13;;
40951;SDS011;26682;51.660;19.338;2023-04-24T16:14:08;12.10;;;10.35;;
40951;SDS011;26682;51.660;19.338;2023-04-24T16:16:52;10.25;;;5.97;;
40951;SDS011;26682;51.660;19.338;2023-04-24T16:19:37;12.68;;;6.22;;
40951;SDS011;26682;51.660;19.338;2023-04-24T16:22:20;11.63;;;5.97;;
40951;SDS011;26682;51.660;19.338;2023-04-24T16:25:03;10.15;;;6.22;;